sensor_id;sensor_type;location;lat;lon;timestamp;pressure;altitude;pressure_sealevel;temperature;humidity
24336;BME280;33098;52.400;16.880;2023-07-13T00:01:50;100289.99;;;20.85;55.79
24336;BME280;33098;52.400;16.880;2023-07-13T00:04:19;100285.27;;;20.80;55.74
24336;BME280;33098;52.400;16.880;2023-07-13T00:06:49;100287.98;;;20.76;55.92
24336;BME280;33098;52.400;16.880;2023-07-13T00:09:17;100290.67;;;20.76;56.12
24336;BME280;33098;52.400;16.880;2023-07-13T00:11:45;100293.34;;;20.74;55.91
24336;BME280;33098;52.400;16.880;2023-07-13T00:14:15;100290.42;;;20.70;56.06
24336;BME280;33098;52.400;16.880;2023-07-13T00:16:42;100294.18;;;20.69;56.29
24336;BME280;33098;52.400;16.880;2023-07-13T00:19:12;100304.78;;;20.66;56.62
24336;BME280;33098;52.400;16.880;2023-07-13T00:21:40;100311.52;;;20.63;56.65
24336;BME280;33098;52.400;16.880;2023-07-13T00:24:11;100318.53;;;20.65;56.79
24336;BME280;33098;52.400;16.880;2023-07-13T00:26:42;100327.59;;;20.67;56.86
24336;BME280;33098;52.400;16.880;2023-07-13T00:29:12;100336.56;;;20.69;56.82
24336;BME280;33098;52.400;16.880;2023-07-13T00:31:39;100342.54;;;20.68;56.87
24336;BME280;33098;52.400;16.880;2023-07-13T00:34:06;100333.23;;;20.71;56.68
24336;BME280;33098;52.400;16.880;2023-07-13T00:36:32;100318.20;;;20.70;56.82
24336;BME280;33098;52.400;16.880;2023-07-13T00:39:01;100315.77;;;20.71;56.77
24336;BME280;33098;52.400;16.880;2023-07-13T00:41:28;100314.23;;;20.70;56.84
24336;BME280;33098;52.400;16.880;2023-07-13T00:43:55;100309.71;;;20.66;56.87
24336;BME280;33098;52.400;16.880;2023-07-13T00:48:49;100305.04;;;20.71;57.12
24336;BME280;33098;52.400;16.880;2023-07-13T00:51:27;100299.29;;;20.74;57.16
24336;BME280;33098;52.400;16.880;2023-07-13T00:54:00;100300.17;;;20.77;57.19
24336;BME280;33098;52.400;16.880;2023-07-13T00:56:31;100293.52;;;20.74;57.12
24336;BME280;33098;52.400;16.880;2023-07-13T00:59:03;100298.21;;;20.76;57.10
24336;BME280;33098;52.400;16.880;2023-07-13T01:01:31;100296.36;;;20.78;57.24
24336;BME280;33098;52.400;16.880;2023-07-13T01:03:58;100295.78;;;20.74;57.24
24336;BME280;33098;52.400;16.880;2023-07-13T01:06:25;100301.77;;;20.73;57.22
24336;BME280;33098;52.400;16.880;2023-07-13T01:08:52;100308.27;;;20.72;57.39
24336;BME280;33098;52.400;16.880;2023-07-13T01:11:21;100314.77;;;20.69;57.34
24336;BME280;33098;52.400;16.880;2023-07-13T01:13:49;100315.98;;;20.64;57.57
24336;BME280;33098;52.400;16.880;2023-07-13T01:16:35;100310.86;;;20.62;57.71
24336;BME280;33098;52.400;16.880;2023-07-13T01:19:15;100315.81;;;20.64;58.02
24336;BME280;33098;52.400;16.880;2023-07-13T01:21:50;100310.80;;;20.66;57.91
24336;BME280;33098;52.400;16.880;2023-07-13T01:24:17;100310.73;;;20.62;57.95
24336;BME280;33098;52.400;16.880;2023-07-13T01:26:49;100317.35;;;20.62;57.98
24336;BME280;33098;52.400;16.880;2023-07-13T01:29:18;100317.05;;;20.62;58.00
24336;BME280;33098;52.400;16.880;2023-07-13T01:31:45;100319.34;;;20.64;58.40
24336;BME280;33098;52.400;16.880;2023-07-13T01:34:12;100313.46;;;20.66;58.27
24336;BME280;33098;52.400;16.880;2023-07-13T01:36:39;100318.01;;;20.73;58.37
24336;BME280;33098;52.400;16.880;2023-07-13T01:39:06;100313.02;;;20.76;58.45
24336;BME280;33098;52.400;16.880;2023-07-13T01:41:32;100320.11;;;20.77;58.47
24336;BME280;33098;52.400;16.880;2023-07-13T01:43:59;100320.08;;;20.85;58.36
24336;BME280;33098;52.400;16.880;2023-07-13T01:46:26;100317.60;;;20.91;58.34
24336;BME280;33098;52.400;16.880;2023-07-13T01:48:52;100314.28;;;20.92;58.10
24336;BME280;33098;52.400;16.880;2023-07-13T01:51:22;100312.09;;;20.94;58.11
24336;BME280;33098;52.400;16.880;2023-07-13T01:53:48;100316.66;;;21.00;57.94
24336;BME280;33098;52.400;16.880;2023-07-13T01:56:16;100314.77;;;21.04;57.83
24336;BME280;33098;52.400;16.880;2023-07-13T01:58:45;100306.31;;;21.03;57.64
24336;BME280;33098;52.400;16.880;2023-07-13T02:01:12;100303.44;;;20.98;57.51
24336;BME280;33098;52.400;16.880;2023-07-13T02:03:38;100298.14;;;20.97;57.56
24336;BME280;33098;52.400;16.880;2023-07-13T02:06:05;100298.24;;;20.99;57.59
24336;BME280;33098;52.400;16.880;2023-07-13T02:08:32;100297.98;;;21.02;57.45
24336;BME280;33098;52.400;16.880;2023-07-13T02:11:00;100305.52;;;21.04;57.39
24336;BME280;33098;52.400;16.880;2023-07-13T02:13:29;100300.33;;;21.08;57.44
24336;BME280;33098;52.400;16.880;2023-07-13T02:15:56;100295.70;;;21.08;57.27
24336;BME280;33098;52.400;16.880;2023-07-13T02:18:23;100303.20;;;21.00;57.20
24336;BME280;33098;52.400;16.880;2023-07-13T02:20:49;100307.46;;;20.92;57.37
24336;BME280;33098;52.400;16.880;2023-07-13T02:23:16;100306.74;;;20.92;57.78
24336;BME280;33098;52.400;16.880;2023-07-13T02:25:43;100303.86;;;20.99;57.92
24336;BME280;33098;52.400;16.880;2023-07-13T02:28:09;100306.15;;;21.06;58.22
24336;BME280;33098;52.400;16.880;2023-07-13T02:30:39;100311.08;;;21.09;58.69
24336;BME280;33098;52.400;16.880;2023-07-13T02:33:06;100313.80;;;21.05;59.01
24336;BME280;33098;52.400;16.880;2023-07-13T02:35:35;100307.74;;;20.99;59.15
24336;BME280;33098;52.400;16.880;2023-07-13T02:38:02;100309.22;;;20.96;59.24
24336;BME280;33098;52.400;16.880;2023-07-13T02:40:31;100316.45;;;21.00;59.45
24336;BME280;33098;52.400;16.880;2023-07-13T02:43:02;100320.88;;;21.05;59.38
24336;BME280;33098;52.400;16.880;2023-07-13T02:45:32;100318.66;;;21.09;59.34
24336;BME280;33098;52.400;16.880;2023-07-13T02:47:58;100323.13;;;21.11;59.14
24336;BME280;33098;52.400;16.880;2023-07-13T02:50:25;100324.06;;;21.12;59.02
24336;BME280;33098;52.400;16.880;2023-07-13T02:52:51;100329.49;;;21.06;58.82
24336;BME280;33098;52.400;16.880;2023-07-13T02:55:18;100333.93;;;20.92;58.96
24336;BME280;33098;52.400;16.880;2023-07-13T02:57:45;100334.11;;;20.90;59.26
24336;BME280;33098;52.400;16.880;2023-07-13T03:00:13;100336.26;;;20.95;59.23
24336;BME280;33098;52.400;16.880;2023-07-13T03:02:40;100338.71;;;20.98;59.25
24336;BME280;33098;52.400;16.880;2023-07-13T03:05:07;100324.62;;;21.01;59.24
24336;BME280;33098;52.400;16.880;2023-07-13T03:07:37;100318.64;;;21.03;59.26
24336;BME280;33098;52.400;16.880;2023-07-13T03:10:05;100323.47;;;21.03;59.06
24336;BME280;33098;52.400;16.880;2023-07-13T03:12:38;100327.17;;;21.03;59.04
24336;BME280;33098;52.400;16.880;2023-07-13T03:15:07;100321.45;;;20.97;59.04
24336;BME280;33098;52.400;16.880;2023-07-13T03:17:35;100311.67;;;20.97;59.35
24336;BME280;33098;52.400;16.880;2023-07-13T03:20:02;100309.00;;;20.97;59.37
24336;BME280;33098;52.400;16.880;2023-07-13T03:22:33;100317.70;;;20.92;59.46
24336;BME280;33098;52.400;16.880;2023-07-13T03:25:00;100328.06;;;20.81;59.75
24336;BME280;33098;52.400;16.880;2023-07-13T03:27:27;100323.86;;;20.68;60.01
24336;BME280;33098;52.400;16.880;2023-07-13T03:29:54;100322.98;;;20.61;60.36
24336;BME280;33098;52.400;16.880;2023-07-13T03:32:21;100323.79;;;20.58;60.84
24336;BME280;33098;52.400;16.880;2023-07-13T03:34:47;100321.16;;;20.65;61.05
24336;BME280;33098;52.400;16.880;2023-07-13T03:37:17;100320.36;;;20.64;61.34
24336;BME280;33098;52.400;16.880;2023-07-13T03:39:44;100315.81;;;20.66;61.77
24336;BME280;33098;52.400;16.880;2023-07-13T03:42:11;100317.93;;;20.75;62.27
24336;BME280;33098;52.400;16.880;2023-07-13T03:44:40;100314.77;;;20.81;62.58
24336;BME280;33098;52.400;16.880;2023-07-13T03:47:09;100320.97;;;20.83;62.65
24336;BME280;33098;52.400;16.880;2023-07-13T03:49:36;100330.80;;;20.88;62.95
24336;BME280;33098;52.400;16.880;2023-07-13T03:52:03;100334.40;;;20.78;62.93
24336;BME280;33098;52.400;16.880;2023-07-13T03:54:30;100338.61;;;20.59;63.08
24336;BME280;33098;52.400;16.880;2023-07-13T03:56:57;100345.95;;;20.51;63.60
24336;BME280;33098;52.400;16.880;2023-07-13T03:59:24;100351.82;;;20.55;64.11
24336;BME280;33098;52.400;16.880;2023-07-13T04:01:51;100353.73;;;20.61;64.74
24336;BME280;33098;52.400;16.880;2023-07-13T04:04:18;100353.13;;;20.60;65.13
24336;BME280;33098;52.400;16.880;2023-07-13T04:06:44;100358.94;;;20.64;65.58
24336;BME280;33098;52.400;16.880;2023-07-13T04:09:12;100359.41;;;20.74;65.54
24336;BME280;33098;52.400;16.880;2023-07-13T04:11:39;100360.06;;;20.84;65.29
24336;BME280;33098;52.400;16.880;2023-07-13T04:14:06;100355.19;;;20.91;65.05
24336;BME280;33098;52.400;16.880;2023-07-13T04:16:34;100355.19;;;20.95;65.14
24336;BME280;33098;52.400;16.880;2023-07-13T04:19:01;100353.31;;;20.98;64.79
24336;BME280;33098;52.400;16.880;2023-07-13T04:21:31;100357.11;;;21.00;64.93
24336;BME280;33098;52.400;16.880;2023-07-13T04:23:58;100352.89;;;21.02;64.78
24336;BME280;33098;52.400;16.880;2023-07-13T04:26:25;100356.95;;;21.04;64.92
24336;BME280;33098;52.400;16.880;2023-07-13T04:28:51;100359.00;;;21.08;64.84
24336;BME280;33098;52.400;16.880;2023-07-13T04:31:19;100361.49;;;21.13;64.96
24336;BME280;33098;52.400;16.880;2023-07-13T04:33:46;100369.99;;;21.17;64.79
24336;BME280;33098;52.400;16.880;2023-07-13T04:36:13;100367.89;;;21.19;64.85
24336;BME280;33098;52.400;16.880;2023-07-13T04:38:40;100360.55;;;21.22;65.01
24336;BME280;33098;52.400;16.880;2023-07-13T04:41:08;100359.54;;;21.26;65.27
24336;BME280;33098;52.400;16.880;2023-07-13T04:43:35;100371.98;;;21.28;65.16
24336;BME280;33098;52.400;16.880;2023-07-13T04:46:07;100379.45;;;21.31;65.35
24336;BME280;33098;52.400;16.880;2023-07-13T04:48:37;100376.45;;;21.21;65.54
24336;BME280;33098;52.400;16.880;2023-07-13T04:51:04;100372.86;;;21.16;65.84
24336;BME280;33098;52.400;16.880;2023-07-13T04:53:31;100370.89;;;21.14;66.05
24336;BME280;33098;52.400;16.880;2023-07-13T04:55:58;100372.52;;;21.23;66.43
24336;BME280;33098;52.400;16.880;2023-07-13T04:58:28;100373.22;;;21.31;66.58
24336;BME280;33098;52.400;16.880;2023-07-13T05:01:05;100372.48;;;21.37;66.75
24336;BME280;33098;52.400;16.880;2023-07-13T05:03:32;100372.19;;;21.39;66.97
24336;BME280;33098;52.400;16.880;2023-07-13T05:06:03;100377.82;;;21.43;67.17
24336;BME280;33098;52.400;16.880;2023-07-13T05:08:30;100383.56;;;21.46;67.12
24336;BME280;33098;52.400;16.880;2023-07-13T05:11:00;100391.46;;;21.49;67.25
24336;BME280;33098;52.400;16.880;2023-07-13T05:13:26;100395.03;;;21.52;67.31
24336;BME280;33098;52.400;16.880;2023-07-13T05:16:04;100394.23;;;21.54;67.44
24336;BME280;33098;52.400;16.880;2023-07-13T05:18:32;100396.39;;;21.54;67.65
24336;BME280;33098;52.400;16.880;2023-07-13T05:21:01;100395.83;;;21.47;67.81
24336;BME280;33098;52.400;16.880;2023-07-13T05:23:29;100393.83;;;21.52;67.98
24336;BME280;33098;52.400;16.880;2023-07-13T05:25:57;100399.24;;;21.58;68.27
24336;BME280;33098;52.400;16.880;2023-07-13T05:28:25;100400.79;;;21.58;68.31
24336;BME280;33098;52.400;16.880;2023-07-13T05:30:54;100404.58;;;21.57;68.50
24336;BME280;33098;52.400;16.880;2023-07-13T05:33:21;100403.45;;;21.57;68.56
24336;BME280;33098;52.400;16.880;2023-07-13T05:35:47;100409.52;;;21.60;68.57
24336;BME280;33098;52.400;16.880;2023-07-13T05:38:14;100416.72;;;21.59;68.75
24336;BME280;33098;52.400;16.880;2023-07-13T05:40:43;100419.05;;;21.53;68.72
24336;BME280;33098;52.400;16.880;2023-07-13T05:43:10;100427.61;;;21.44;69.07
24336;BME280;33098;52.400;16.880;2023-07-13T05:45:37;100429.50;;;21.44;69.40
24336;BME280;33098;52.400;16.880;2023-07-13T05:48:06;100437.99;;;21.48;69.44
24336;BME280;33098;52.400;16.880;2023-07-13T05:50:33;100442.71;;;21.49;69.68
24336;BME280;33098;52.400;16.880;2023-07-13T05:52:59;100449.48;;;21.49;69.80
24336;BME280;33098;52.400;16.880;2023-07-13T05:55:26;100445.95;;;21.45;69.73
24336;BME280;33098;52.400;16.880;2023-07-13T05:57:52;100447.88;;;21.44;69.92
24336;BME280;33098;52.400;16.880;2023-07-13T06:00:21;100448.89;;;21.47;69.88
24336;BME280;33098;52.400;16.880;2023-07-13T06:02:48;100449.39;;;21.50;70.05
24336;BME280;33098;52.400;16.880;2023-07-13T06:05:14;100445.64;;;21.51;70.02
24336;BME280;33098;52.400;16.880;2023-07-13T06:07:41;100452.54;;;21.54;70.04
24336;BME280;33098;52.400;16.880;2023-07-13T06:10:09;100458.66;;;21.56;69.94
24336;BME280;33098;52.400;16.880;2023-07-13T06:12:35;100460.91;;;21.58;70.12
24336;BME280;33098;52.400;16.880;2023-07-13T06:15:04;100462.03;;;21.61;70.03
24336;BME280;33098;52.400;16.880;2023-07-13T06:17:31;100467.08;;;21.61;70.16
24336;BME280;33098;52.400;16.880;2023-07-13T06:19:57;100473.75;;;21.61;70.24
24336;BME280;33098;52.400;16.880;2023-07-13T06:22:24;100482.61;;;21.59;70.39
24336;BME280;33098;52.400;16.880;2023-07-13T06:24:51;100481.55;;;21.55;70.25
24336;BME280;33098;52.400;16.880;2023-07-13T06:27:18;100487.58;;;21.52;70.56
24336;BME280;33098;52.400;16.880;2023-07-13T06:29:45;100486.45;;;21.44;70.39
24336;BME280;33098;52.400;16.880;2023-07-13T06:32:12;100488.35;;;21.35;70.81
24336;BME280;33098;52.400;16.880;2023-07-13T06:34:38;100486.57;;;21.36;71.22
24336;BME280;33098;52.400;16.880;2023-07-13T06:37:09;100489.30;;;21.46;71.39
24336;BME280;33098;52.400;16.880;2023-07-13T06:39:36;100491.48;;;21.54;71.56
24336;BME280;33098;52.400;16.880;2023-07-13T06:42:03;100494.41;;;21.57;71.43
24336;BME280;33098;52.400;16.880;2023-07-13T06:44:32;100500.30;;;21.49;71.47
24336;BME280;33098;52.400;16.880;2023-07-13T06:46:58;100500.58;;;21.55;71.78
24336;BME280;33098;52.400;16.880;2023-07-13T06:49:25;100501.63;;;21.66;72.01
24336;BME280;33098;52.400;16.880;2023-07-13T06:51:52;100494.48;;;21.68;71.80
24336;BME280;33098;52.400;16.880;2023-07-13T06:54:18;100489.42;;;21.79;71.78
24336;BME280;33098;52.400;16.880;2023-07-13T06:56:46;100487.52;;;21.86;71.55
24336;BME280;33098;52.400;16.880;2023-07-13T06:59:13;100486.98;;;21.91;71.34
24336;BME280;33098;52.400;16.880;2023-07-13T07:01:39;100489.98;;;21.93;71.33
24336;BME280;33098;52.400;16.880;2023-07-13T07:04:06;100489.45;;;21.95;71.35
24336;BME280;33098;52.400;16.880;2023-07-13T07:06:38;100493.02;;;22.03;71.40
24336;BME280;33098;52.400;16.880;2023-07-13T07:09:05;100495.46;;;22.11;71.23
24336;BME280;33098;52.400;16.880;2023-07-13T07:11:31;100500.77;;;22.16;71.16
24336;BME280;33098;52.400;16.880;2023-07-13T07:13:58;100497.89;;;22.18;71.10
24336;BME280;33098;52.400;16.880;2023-07-13T07:16:25;100492.73;;;22.09;70.88
24336;BME280;33098;52.400;16.880;2023-07-13T07:18:52;100491.13;;;22.05;71.16
24336;BME280;33098;52.400;16.880;2023-07-13T07:21:19;100496.84;;;22.16;71.41
24336;BME280;33098;52.400;16.880;2023-07-13T07:23:45;100490.45;;;22.25;71.35
24336;BME280;33098;52.400;16.880;2023-07-13T07:26:12;100499.58;;;22.25;70.89
24336;BME280;33098;52.400;16.880;2023-07-13T07:28:39;100495.25;;;22.21;70.91
24336;BME280;33098;52.400;16.880;2023-07-13T07:31:06;100490.11;;;22.30;71.23
24336;BME280;33098;52.400;16.880;2023-07-13T07:33:36;100484.23;;;22.40;71.06
24336;BME280;33098;52.400;16.880;2023-07-13T07:36:05;100485.06;;;22.45;70.76
24336;BME280;33098;52.400;16.880;2023-07-13T07:38:32;100485.84;;;22.48;70.68
24336;BME280;33098;52.400;16.880;2023-07-13T07:41:02;100484.14;;;22.55;70.60
24336;BME280;33098;52.400;16.880;2023-07-13T07:43:29;100488.55;;;22.62;70.45
24336;BME280;33098;52.400;16.880;2023-07-13T07:45:55;100493.48;;;22.68;70.02
24336;BME280;33098;52.400;16.880;2023-07-13T07:48:22;100488.81;;;22.72;69.56
24336;BME280;33098;52.400;16.880;2023-07-13T07:50:49;100487.64;;;22.77;69.00
24336;BME280;33098;52.400;16.880;2023-07-13T07:53:17;100489.95;;;22.80;68.86
24336;BME280;33098;52.400;16.880;2023-07-13T07:55:44;100493.42;;;22.82;68.47
24336;BME280;33098;52.400;16.880;2023-07-13T07:58:11;100493.70;;;22.84;67.97
24336;BME280;33098;52.400;16.880;2023-07-13T08:00:38;100493.97;;;22.89;67.93
24336;BME280;33098;52.400;16.880;2023-07-13T08:03:10;100500.27;;;22.94;67.63
24336;BME280;33098;52.400;16.880;2023-07-13T08:05:37;100508.04;;;22.96;66.77
24336;BME280;33098;52.400;16.880;2023-07-13T08:08:04;100511.71;;;22.95;66.45
24336;BME280;33098;52.400;16.880;2023-07-13T08:10:36;100511.89;;;23.01;66.32
24336;BME280;33098;52.400;16.880;2023-07-13T08:13:05;100503.74;;;23.07;65.57
24336;BME280;33098;52.400;16.880;2023-07-13T08:15:34;100502.25;;;23.09;65.19
24336;BME280;33098;52.400;16.880;2023-07-13T08:18:03;100502.14;;;23.13;64.75
24336;BME280;33098;52.400;16.880;2023-07-13T08:20:29;100505.23;;;23.16;64.27
24336;BME280;33098;52.400;16.880;2023-07-13T08:22:56;100504.69;;;23.13;63.83
24336;BME280;33098;52.400;16.880;2023-07-13T08:25:22;100502.14;;;23.18;64.01
24336;BME280;33098;52.400;16.880;2023-07-13T08:27:49;100507.17;;;23.29;63.86
24336;BME280;33098;52.400;16.880;2023-07-13T08:30:16;100507.05;;;23.43;63.56
24336;BME280;33098;52.400;16.880;2023-07-13T08:32:43;100505.95;;;23.57;63.23
24336;BME280;33098;52.400;16.880;2023-07-13T08:35:10;100504.21;;;23.70;62.84
24336;BME280;33098;52.400;16.880;2023-07-13T08:37:37;100508.75;;;23.74;62.16
24336;BME280;33098;52.400;16.880;2023-07-13T08:40:04;100510.49;;;23.75;61.86
24336;BME280;33098;52.400;16.880;2023-07-13T08:42:39;100515.21;;;23.69;61.84
24336;BME280;33098;52.400;16.880;2023-07-13T08:45:46;100513.39;;;23.79;61.95
24336;BME280;33098;52.400;16.880;2023-07-13T08:48:22;100514.11;;;23.80;61.43
24336;BME280;33098;52.400;16.880;2023-07-13T08:51:11;100513.82;;;23.78;61.35
24336;BME280;33098;52.400;16.880;2023-07-13T08:54:04;100508.84;;;23.84;61.63
24336;BME280;33098;52.400;16.880;2023-07-13T08:56:34;100504.76;;;23.96;61.61
24336;BME280;33098;52.400;16.880;2023-07-13T08:59:13;100503.45;;;23.99;61.59
24336;BME280;33098;52.400;16.880;2023-07-13T09:04:46;100499.06;;;24.19;61.53
24336;BME280;33098;52.400;16.880;2023-07-13T09:07:24;100504.45;;;24.22;61.06
24336;BME280;33098;52.400;16.880;2023-07-13T09:10:18;100506.73;;;24.22;60.86
24336;BME280;33098;52.400;16.880;2023-07-13T09:12:59;100509.57;;;24.27;60.87
24336;BME280;33098;52.400;16.880;2023-07-13T09:15:35;100508.06;;;24.37;60.64
24336;BME280;33098;52.400;16.880;2023-07-13T09:18:11;100506.66;;;24.49;60.59
24336;BME280;33098;52.400;16.880;2023-07-13T09:20:46;100507.06;;;24.60;60.11
24336;BME280;33098;52.400;16.880;2023-07-13T09:23:17;100510.27;;;24.71;59.86
24336;BME280;33098;52.400;16.880;2023-07-13T09:25:53;100510.59;;;24.68;59.40
24336;BME280;33098;52.400;16.880;2023-07-13T09:28:27;100508.29;;;24.66;59.62
24336;BME280;33098;52.400;16.880;2023-07-13T09:31:19;100510.73;;;24.80;59.67
24336;BME280;33098;52.400;16.880;2023-07-13T09:33:48;100506.34;;;24.92;59.64
24336;BME280;33098;52.400;16.880;2023-07-13T09:36:31;100509.45;;;25.01;59.62
24336;BME280;33098;52.400;16.880;2023-07-13T09:39:01;100503.69;;;25.07;59.69
24336;BME280;33098;52.400;16.880;2023-07-13T09:41:46;100508.11;;;24.98;59.23
24336;BME280;33098;52.400;16.880;2023-07-13T09:44:17;100510.73;;;24.79;59.02
24336;BME280;33098;52.400;16.880;2023-07-13T09:46:47;100508.84;;;24.68;59.17
24336;BME280;33098;52.400;16.880;2023-07-13T09:49:18;100510.67;;;24.70;59.18
24336;BME280;33098;52.400;16.880;2023-07-13T09:51:45;100509.25;;;24.70;59.14
24336;BME280;33098;52.400;16.880;2023-07-13T09:54:18;100508.99;;;24.69;59.10
24336;BME280;33098;52.400;16.880;2023-07-13T09:56:47;100508.11;;;24.74;59.33
24336;BME280;33098;52.400;16.880;2023-07-13T09:59:21;100506.11;;;24.85;59.36
24336;BME280;33098;52.400;16.880;2023-07-13T10:01:53;100508.26;;;24.95;59.35
24336;BME280;33098;52.400;16.880;2023-07-13T10:04:26;100514.09;;;25.07;59.50
24336;BME280;33098;52.400;16.880;2023-07-13T10:07:09;100512.31;;;25.21;59.25
24336;BME280;33098;52.400;16.880;2023-07-13T10:09:42;100510.73;;;25.36;59.18
24336;BME280;33098;52.400;16.880;2023-07-13T10:12:15;100510.70;;;25.56;58.99
24336;BME280;33098;52.400;16.880;2023-07-13T10:14:42;100506.19;;;25.77;58.40
24336;BME280;33098;52.400;16.880;2023-07-13T10:17:13;100510.46;;;25.97;57.78
24336;BME280;33098;52.400;16.880;2023-07-13T10:19:41;100512.76;;;26.13;57.07
24336;BME280;33098;52.400;16.880;2023-07-13T10:22:37;100516.23;;;26.26;56.38
24336;BME280;33098;52.400;16.880;2023-07-13T10:25:26;100517.41;;;26.29;56.21
24336;BME280;33098;52.400;16.880;2023-07-13T10:27:58;100525.15;;;26.32;55.83
24336;BME280;33098;52.400;16.880;2023-07-13T10:30:34;100528.98;;;26.36;55.41
24336;BME280;33098;52.400;16.880;2023-07-13T10:33:03;100523.54;;;26.30;55.28
24336;BME280;33098;52.400;16.880;2023-07-13T10:35:35;100521.66;;;26.32;55.36
24336;BME280;33098;52.400;16.880;2023-07-13T10:38:06;100515.66;;;26.36;55.31
24336;BME280;33098;52.400;16.880;2023-07-13T10:40:41;100517.83;;;26.35;55.34
24336;BME280;33098;52.400;16.880;2023-07-13T10:43:25;100516.73;;;26.25;54.95
24336;BME280;33098;52.400;16.880;2023-07-13T10:45:54;100513.83;;;26.21;54.98
24336;BME280;33098;52.400;16.880;2023-07-13T10:48:23;100513.59;;;26.24;54.67
24336;BME280;33098;52.400;16.880;2023-07-13T10:50:53;100512.67;;;26.24;54.54
24336;BME280;33098;52.400;16.880;2023-07-13T10:53:28;100513.17;;;26.33;55.08
24336;BME280;33098;52.400;16.880;2023-07-13T10:55:59;100509.28;;;26.55;55.01
24336;BME280;33098;52.400;16.880;2023-07-13T10:58:39;100507.77;;;26.70;54.42
24336;BME280;33098;52.400;16.880;2023-07-13T11:03:34;100504.30;;;27.05;54.11
24336;BME280;33098;52.400;16.880;2023-07-13T11:06:10;100509.30;;;27.08;52.07
24336;BME280;33098;52.400;16.880;2023-07-13T11:11:46;100515.13;;;26.67;52.04
24336;BME280;33098;52.400;16.880;2023-07-13T11:14:37;100512.66;;;26.48;51.49
24336;BME280;33098;52.400;16.880;2023-07-13T11:19:51;100525.15;;;25.99;51.38
24336;BME280;33098;52.400;16.880;2023-07-13T11:22:51;100523.55;;;25.86;51.79
24336;BME280;33098;52.400;16.880;2023-07-13T11:25:24;100519.75;;;25.88;52.26
24336;BME280;33098;52.400;16.880;2023-07-13T11:33:22;100516.13;;;26.05;51.66
24336;BME280;33098;52.400;16.880;2023-07-13T11:36:12;100511.79;;;26.14;51.56
24336;BME280;33098;52.400;16.880;2023-07-13T11:38:54;100510.22;;;26.16;51.67
24336;BME280;33098;52.400;16.880;2023-07-13T11:41:34;100504.03;;;26.13;51.84
24336;BME280;33098;52.400;16.880;2023-07-13T11:44:17;100504.46;;;26.13;51.44
24336;BME280;33098;52.400;16.880;2023-07-13T11:46:48;100501.64;;;26.06;50.57
24336;BME280;33098;52.400;16.880;2023-07-13T11:49:21;100502.69;;;26.07;51.19
24336;BME280;33098;52.400;16.880;2023-07-13T11:51:48;100509.05;;;26.20;50.19
24336;BME280;33098;52.400;16.880;2023-07-13T11:57:05;100509.83;;;26.12;47.42
24336;BME280;33098;52.400;16.880;2023-07-13T11:59:39;100508.28;;;26.16;46.73
24336;BME280;33098;52.400;16.880;2023-07-13T12:02:28;100507.86;;;26.36;47.91
24336;BME280;33098;52.400;16.880;2023-07-13T12:04:58;100505.52;;;26.66;48.13
24336;BME280;33098;52.400;16.880;2023-07-13T12:07:29;100503.98;;;26.96;47.55
24336;BME280;33098;52.400;16.880;2023-07-13T12:12:36;100494.50;;;27.86;46.47
24336;BME280;33098;52.400;16.880;2023-07-13T12:15:07;100498.00;;;28.31;45.17
24336;BME280;33098;52.400;16.880;2023-07-13T12:17:35;100501.77;;;28.68;43.44
24336;BME280;33098;52.400;16.880;2023-07-13T12:20:20;100498.98;;;28.97;43.79
24336;BME280;33098;52.400;16.880;2023-07-13T12:22:48;100503.78;;;29.09;43.86
24336;BME280;33098;52.400;16.880;2023-07-13T12:25:19;100506.33;;;29.16;43.01
24336;BME280;33098;52.400;16.880;2023-07-13T12:27:48;100511.51;;;28.98;41.05
24336;BME280;33098;52.400;16.880;2023-07-13T12:30:30;100508.71;;;28.80;42.45
24336;BME280;33098;52.400;16.880;2023-07-13T12:33:08;100505.23;;;29.10;42.91
24336;BME280;33098;52.400;16.880;2023-07-13T12:35:45;100496.31;;;29.49;41.31
24336;BME280;33098;52.400;16.880;2023-07-13T12:38:13;100497.04;;;29.86;40.81
24336;BME280;33098;52.400;16.880;2023-07-13T12:40:40;100496.13;;;29.87;39.94
24336;BME280;33098;52.400;16.880;2023-07-13T12:43:11;100495.23;;;29.75;39.75
24336;BME280;33098;52.400;16.880;2023-07-13T12:45:39;100494.33;;;29.57;39.89
24336;BME280;33098;52.400;16.880;2023-07-13T12:48:21;100498.17;;;29.33;38.47
24336;BME280;33098;52.400;16.880;2023-07-13T12:50:49;100495.30;;;28.91;38.58
24336;BME280;33098;52.400;16.880;2023-07-13T12:53:23;100492.16;;;28.72;39.15
24336;BME280;33098;52.400;16.880;2023-07-13T12:55:57;100491.92;;;28.67;39.50
24336;BME280;33098;52.400;16.880;2023-07-13T12:58:32;100491.67;;;28.78;40.00
24336;BME280;33098;52.400;16.880;2023-07-13T13:01:04;100491.38;;;29.18;40.11
24336;BME280;33098;52.400;16.880;2023-07-13T13:03:34;100485.55;;;29.55;39.83
24336;BME280;33098;52.400;16.880;2023-07-13T13:06:17;100492.09;;;29.95;39.71
24336;BME280;33098;52.400;16.880;2023-07-13T13:08:48;100486.40;;;30.37;39.77
24336;BME280;33098;52.400;16.880;2023-07-13T13:11:16;100483.63;;;30.75;39.07
24336;BME280;33098;52.400;16.880;2023-07-13T13:13:44;100483.62;;;31.22;38.76
24336;BME280;33098;52.400;16.880;2023-07-13T13:18:44;100474.48;;;32.41;36.76
24336;BME280;33098;52.400;16.880;2023-07-13T13:21:12;100477.16;;;32.81;35.96
24336;BME280;33098;52.400;16.880;2023-07-13T13:23:42;100478.87;;;33.13;35.94